首页
METAR-TAF:

METAR-TAF

机场 :

悉尼, 澳大利亚

悉尼机场

纬度: 33-57S, 经度: 151-11E, 海拔: 6米

当前天气观测

该预报发布于17分钟前的13:00 UTC
风速8节,风向西转西南
温度 18°C
湿度 83%
气压 1020 hPa
能见度10公里或以上
1500米以下无云,无积雨云

METAR: YSSY 171300Z 25008KT CAVOK 18/15 Q1020 NOSIG

时间: 00:17 (13:17 UTC)

预报

该预报发布于1小时和47分钟前的11:30 UTC
预报有效从17日的 12点(UTC)到 18日的 18点(UTC)
风速8节,风向西转西北
能见度10公里或以上
1500米以下无云,无积雨云
从 18日的 0100点(UTC)
风速16节,风向东转东北
能见度10公里或以上
1500米以下无云,无积雨云
从 18日的 0900点(UTC)
风速10节,风向东北
能见度10公里或以上
1500米以下无云,无积雨云
从 18日的 1200点(UTC)
风速8节,风向北转西北
能见度10公里或以上
1500米以下无云,无积雨云

TAF: YSSY 171130Z 1712/1818 29008KT CAVOK FM180100 07016KT CAVOK FM180900 04010KT CAVOK FM181200 34008KT CAVOK

超过4000个机场的气象观测和天气预报(METAR&TAF报告)。

可查询的气象台以黄色和红色小点在地图上表示。

将鼠标移到小点上方,可查看气象台名称。

然后点击查看天气观测和预报。

如需切换地图:点击带黑十字的绿色按钮放大地图;点击带横线的绿色按钮缩小地图;或者点击绿色箭头查看邻近地区的地图。


METAR-TAF: